Date,TemperatureHighF,TemperatureAvgF,TemperatureLowF,DewpointHighF,DewpointAvgF,DewpointLowF,HumidityHigh,HumidityAvg,HumidityLow,PressureMaxIn,PressureMinIn,WindSpeedMaxMPH,WindSpeedAvgMPH,GustSpeedMaxMPH,PrecipitationSumIn
2013-7-1,82,68,55,58,52,45,85,60,36,30.17,30.06,9,1,9,0.00
2013-7-2,83,66,49,58,48,38,82,54,35,30.13,30.00,9,1,9,0.00
2013-7-3,85,69,52,60,50,36,64,51,35,30.02,29.88,10,1,10,0.00
2013-7-4,84,73,61,61,55,49,67,55,39,29.88,29.77,19,2,19,0.00
2013-7-5,85,76,68,65,60,56,70,59,46,29.78,29.70,12,3,28,0.00
2013-7-6,81,70,66,69,64,60,88,81,64,29.83,29.73,8,0,9,0.16
2013-7-7,75,67,61,68,63,57,89,85,76,29.91,29.79,8,0,8,0.00
2013-7-8,82,68,59,65,60,55,89,77,50,29.96,29.88,8,0,8,0.00
2013-7-9,74,66,60,67,60,54,88,83,74,29.92,29.72,28,2,28,0.04
2013-7-10,76,64,55,57,53,49,87,69,41,29.96,29.80,28,4,28,0.00
2013-7-11,81,68,53,60,56,49,88,67,44,30.03,29.88,12,1,12,0.00
2013-7-12,85,75,65,67,62,56,73,63,53,29.90,29.79,15,3,15,0.00
2013-7-13,85,73,65,72,66,60,87,78,61,30.01,29.81,28,2,28,0.18
2013-7-14,69,67,65,64,62,60,89,85,78,30.14,29.99,10,1,10,0.19
2013-7-15,70,68,64,66,63,61,89,87,82,30.18,30.11,8,0,8,0.02
2013-7-16,89,76,62,72,66,59,89,72,48,30.12,30.02,14,2,16,0.00
2013-7-17,83,74,65,70,66,60,88,77,61,30.13,30.04,13,1,13,0.37
2013-7-18,87,73,63,75,66,60,90,80,62,30.05,29.59,29,1,29,0.32
2013-7-19,78,70,61,64,56,45,78,62,45,29.79,29.70,28,4,28,0.00
2013-7-20,70,59,48,52,47,43,86,65,46,29.95,29.78,28,1,28,0.00
2013-7-21,74,60,45,55,48,41,87,68,48,29.95,29.75,10,1,10,0.00
2013-7-22,78,65,55,65,55,44,85,71,55,29.76,29.53,19,4,28,0.00
2013-7-23,72,60,51,53,49,45,87,68,45,29.97,29.76,28,2,28,0.00
2013-7-24,74,64,52,56,52,49,88,69,48,29.98,29.83,12,1,12,0.00
2013-7-25,76,63,57,61,56,51,88,78,55,29.86,29.79,28,1,28,0.35
2013-7-26,57,52,47,53,48,43,89,85,75,30.03,29.78,28,2,28,10.46
2013-7-27,53,49,46,48,45,41,88,87,83,29.99,29.82,28,4,28,0.02
2013-7-28,71,57,48,54,48,45,88,76,50,29.97,29.87,13,2,13,2.04
2013-7-29,74,62,49,57,51,46,89,70,44,30.03,29.95,7,0,7,0.00
2013-7-30,71,61,55,61,56,50,88,81,69,30.02,29.93,10,0,10,1.63
2013-7-31,71,63,56,53,52,50,81,66,52,29.88,29.85,15,4,15,0.00